Rain From: 18-11-2018 12:00 Until: 19-11-2018 00:00 warning for: Rain Level: Orange info button
english:
torrential rain

Ελληνικά:
ισχυρες βροχες 

Thunderstorms From: 18-11-2018 12:00 Until: 19-11-2018 00:00 warning for: Thunderstorms Level: Yellow info button
english:
local thunderstorms

Ελληνικά:
τοπικες καταιγιδες 

Kopaida air sports center. The private airport (CTAF) Kopaida (ZZZZ) located near Athens southwest of Castle village in Voiotia,
just one hour from leaving the National Road Athens - Lamia of Kifissia. The exact location of the airport is N 38 ° 27.41 'and E 023 ° 08.18'.



Kopaida NW more information Kopaida NW


Agios Dimitrios more information Agios Dimitrios


warning for Thunderstorms more information blitzortung!


warning for Rain more information rain snow radar


Kopaida live view NE

Athens SkydiveBecome a Skydiver

Spot fly AviationSpot Flight Academy



Nearby METAR Reports

   
LGTG - Tanagra
Updated: 18-11-2018 22:50
Mostly Cloudy  
Mostly Cloudy  
   Wind: varies 5.6 km/h
Wind: varies 5.6 km/h
Temperature: 10°C
Wind Chill: 9°C
Dew Point: 10°C
Humidity: 100%
Barometer: 1009 hPa
Clouds: Mostly Cloudy
Visibility: 8 km
Cloud details: Partly Cloudy 800 ft,
Mostly Cloudy 2500 ft
LGTG 182050Z VRB03KT 8000 SCT008 BKN025 10/10 Q1009 RMK OVC080 BLU
LGBL - Anchialos
Updated: 18-11-2018 22:50
Overcast  
Overcast  
   Wind: WNW 9.3 km/h
Wind: WNW 9.3 km/h
Temperature: 7°C
Wind Chill: 5°C
Dew Point: 5°C
Humidity: 87%
Barometer: 1010 hPa
Clouds: Overcast
Visibility: More than 10 km
Cloud details: Partly Cloudy 1000 ft,
Overcast 2000 ft
LGBL 182050Z 30005KT 9999 SCT010 OVC020 07/05 Q1010
LGKR - Corfu
Updated: 18-11-2018 23:20
Overcast  
Overcast  
   Wind: WSW 5.6 km/h
Wind: WSW 5.6 km/h
Temperature: 12°C
Dew Point: 11°C
Humidity: 94%
Barometer: 1007 hPa
Clouds: Overcast
Visibility: More than 10 km
Cloud details: Few Clouds 1800 ft,
Mostly Cloudy 3500 ft,
Overcast 8000 ft
LGKR 182120Z 25003KT 9999 FEW018 BKN035 OVC080 12/11 Q1007 NOSIG
LGAV - Eleftherios Venizelos
Updated: 18-11-2018 23:20
Mostly Cloudy  
Mostly Cloudy  
   Wind: SSW 13 km/h
Wind: SSW 13 km/h
Temperature: 13°C
Dew Point: 11°C
Humidity: 88%
Barometer: 1010 hPa
Clouds: Mostly Cloudy
Visibility: More than 10 km
Cloud details: Partly Cloudy 2500 ft,
Mostly Cloudy 7000 ft
LGAV 182120Z 21007KT 9999 SCT025 BKN070 13/11 Q1010 NOSIG
LGMT - Mytilene
Updated: 18-11-2018 22:20
NOT Current
Rain, Mostly Cloudy  
Rain, Mostly Cloudy  
   Wind: SSE 24.1 km/h
Wind: SSE 24.1 km/h
Temperature: 15°C
Dew Point: 14°C
Humidity: 94%
Barometer: 1013 hPa
Clouds: Mostly Cloudy
Visibility: 6 km
Cloud details: Partly Cloudy 1200 ft,
Few Clouds 1600 ft,
Mostly Cloudy 1800 ft
LGMT 182020Z 16013KT 140V220 6000 RA SCT012 FEW016TCU BKN018 15/14 Q1013
LGIR - Heraklion
Updated: 18-11-2018 23:20
Mostly Cloudy  
Mostly Cloudy  
   Wind: South 7.4 km/h
Wind: South 7.4 km/h
Temperature: 18°C
Dew Point: 16°C
Humidity: 88%
Barometer: 1011 hPa
Clouds: Mostly Cloudy
Visibility: More than 10 km
Cloud details: Partly Cloudy 2000 ft,
Mostly Cloudy 9000 ft
LGIR 182120Z 17004KT 9999 SCT020 BKN090 18/16 Q1011 NOSIG
LGRP - Rhodes
Updated: 18-11-2018 23:20
Partly Cloudy  
Partly Cloudy  
   Wind: varies 9.3 km/h
Wind: varies 9.3 km/h
Temperature: 19°C
Dew Point: 15°C
Humidity: 78%
Barometer: 1014 hPa
Clouds: Partly Cloudy
Visibility: More than 10 km
Cloud details: Few Clouds 1000 ft,
Partly Cloudy 2000 ft
LGRP 182120Z VRB05KT 9999 FEW010 SCT020 19/15 Q1014 WS R25 NOSIG
LGKV - Kavala
Updated: 18-11-2018 22:50
Overcast  
Overcast  
   Wind: East 14.8 km/h
Wind: East 14.8 km/h
Temperature: 8°C
Wind Chill: 6°C
Dew Point: 7°C
Humidity: 93%
Barometer: 1010 hPa
Clouds: Overcast
Visibility: 8 km
Cloud details: Few Clouds 1500 ft,
Mostly Cloudy 2500 ft,
Overcast 6000 ft
LGKV 182050Z 09008KT 8000 FEW015 BKN025 OVC060 08/07 Q1010
LGMK - Mikonos
Updated: 18-11-2018 19:50
NOT Current
Partly Cloudy  
Partly Cloudy  
   Wind: SE 20.4 km/h
Wind: SE 20.4 km/h
Temperature: 17°C
Dew Point: 14°C
Humidity: 83%
Barometer: 1011 hPa
Clouds: Partly Cloudy
Visibility: More than 10 km
Cloud details: Few Clouds 1800 ft,
Partly Cloudy 3000 ft
LGMK 181750Z 13011KT 9999 FEW018 SCT030 17/14 Q1011

Script developed by  Saratoga-weather.org Adapted for the template by  Weerstation Leuven

You find our weather info also at:

UK Metoffice

European Weather Network

WeatherCloud

Weather Underground

AWEKAS

Citizen Weather Observer Program (CWOP)

HAMweather, WeatherForYou, PWS Weather

Equipment we use:

Weather-station
Wireless Vantage Pro2

Weather-program
Weather Display

Wireless Vantage Pro2

Weather Display


Never base important decisions on this or any weather information obtained from the Internet

Kopaida airport (ZZZZ) - CTAF frequency : 119.700 - Tanagra(LGTG) MATZ 120.250

Airport Phone +306977612200, +302268041170, Contact Mr. George Papadopoulos.